sensor_id;sensor_type;location;lat;lon;timestamp;P1;durP1;ratioP1;P2;durP2;ratioP2
9972;SDS011;5027;53.560;10.062;2023-03-31T00:00:05;17.00;;;5.20;;
9972;SDS011;5027;53.560;10.062;2023-03-31T00:02:37;16.33;;;5.40;;
9972;SDS011;5027;53.560;10.062;2023-03-31T00:05:07;14.40;;;4.00;;
9972;SDS011;5027;53.560;10.062;2023-03-31T00:07:34;15.97;;;4.67;;
9972;SDS011;5027;53.560;10.062;2023-03-31T00:10:03;17.67;;;4.87;;
9972;SDS011;5027;53.560;10.062;2023-03-31T00:12:43;19.17;;;4.67;;
9972;SDS011;5027;53.560;10.062;2023-03-31T00:15:10;13.73;;;4.13;;
9972;SDS011;5027;53.560;10.062;2023-03-31T00:17:37;15.77;;;4.33;;
9972;SDS011;5027;53.560;10.062;2023-03-31T00:20:05;18.30;;;5.07;;
9972;SDS011;5027;53.560;10.062;2023-03-31T00:22:37;13.83;;;4.57;;
9972;SDS011;5027;53.560;10.062;2023-03-31T00:25:08;15.80;;;4.20;;
9972;SDS011;5027;53.560;10.062;2023-03-31T00:27:36;17.57;;;4.63;;
9972;SDS011;5027;53.560;10.062;2023-03-31T00:30:03;16.90;;;4.50;;
9972;SDS011;5027;53.560;10.062;2023-03-31T00:32:30;22.13;;;5.07;;
9972;SDS011;5027;53.560;10.062;2023-03-31T00:34:58;15.20;;;4.70;;
9972;SDS011;5027;53.560;10.062;2023-03-31T00:37:27;15.37;;;4.83;;
9972;SDS011;5027;53.560;10.062;2023-03-31T00:39:55;21.30;;;5.07;;
9972;SDS011;5027;53.560;10.062;2023-03-31T00:42:22;13.90;;;4.70;;
9972;SDS011;5027;53.560;10.062;2023-03-31T00:47:41;20.67;;;5.67;;
9972;SDS011;5027;53.560;10.062;2023-03-31T00:50:27;20.93;;;5.00;;
9972;SDS011;5027;53.560;10.062;2023-03-31T00:53:05;20.40;;;5.00;;
9972;SDS011;5027;53.560;10.062;2023-03-31T00:55:43;15.67;;;4.70;;
9972;SDS011;5027;53.560;10.062;2023-03-31T00:58:14;16.50;;;5.07;;
9972;SDS011;5027;53.560;10.062;2023-03-31T01:00:45;21.00;;;4.77;;
9972;SDS011;5027;53.560;10.062;2023-03-31T01:03:13;15.30;;;4.80;;
9972;SDS011;5027;53.560;10.062;2023-03-31T01:08:17;15.63;;;4.83;;
9972;SDS011;5027;53.560;10.062;2023-03-31T01:10:56;18.97;;;5.20;;
9972;SDS011;5027;53.560;10.062;2023-03-31T01:13:25;17.70;;;5.50;;
9972;SDS011;5027;53.560;10.062;2023-03-31T01:15:53;18.60;;;5.13;;
9972;SDS011;5027;53.560;10.062;2023-03-31T01:18:20;19.23;;;5.20;;
9972;SDS011;5027;53.560;10.062;2023-03-31T01:20:57;16.80;;;4.90;;
9972;SDS011;5027;53.560;10.062;2023-03-31T01:29:39;20.27;;;5.00;;
9972;SDS011;5027;53.560;10.062;2023-03-31T01:32:37;16.30;;;4.30;;
9972;SDS011;5027;53.560;10.062;2023-03-31T01:35:32;15.30;;;4.47;;
9972;SDS011;5027;53.560;10.062;2023-03-31T01:38:18;16.00;;;4.90;;
9972;SDS011;5027;53.560;10.062;2023-03-31T01:41:10;16.70;;;4.47;;
9972;SDS011;5027;53.560;10.062;2023-03-31T01:46:36;22.30;;;5.53;;
9972;SDS011;5027;53.560;10.062;2023-03-31T01:49:23;17.57;;;5.73;;
9972;SDS011;5027;53.560;10.062;2023-03-31T01:54:48;16.63;;;4.77;;
9972;SDS011;5027;53.560;10.062;2023-03-31T02:00:03;15.33;;;5.23;;
9972;SDS011;5027;53.560;10.062;2023-03-31T02:02:42;16.80;;;5.40;;
9972;SDS011;5027;53.560;10.062;2023-03-31T02:05:16;15.63;;;5.43;;
9972;SDS011;5027;53.560;10.062;2023-03-31T02:07:48;15.97;;;5.20;;
9972;SDS011;5027;53.560;10.062;2023-03-31T02:10:28;16.77;;;5.20;;
9972;SDS011;5027;53.560;10.062;2023-03-31T02:12:58;20.30;;;5.67;;
9972;SDS011;5027;53.560;10.062;2023-03-31T02:15:27;20.23;;;5.87;;
9972;SDS011;5027;53.560;10.062;2023-03-31T02:18:00;18.93;;;5.80;;
9972;SDS011;5027;53.560;10.062;2023-03-31T02:20:39;19.10;;;5.20;;
9972;SDS011;5027;53.560;10.062;2023-03-31T02:23:08;14.47;;;5.17;;
9972;SDS011;5027;53.560;10.062;2023-03-31T02:25:40;11.53;;;4.60;;
9972;SDS011;5027;53.560;10.062;2023-03-31T02:28:13;17.37;;;5.37;;
9972;SDS011;5027;53.560;10.062;2023-03-31T02:33:18;17.80;;;5.27;;
9972;SDS011;5027;53.560;10.062;2023-03-31T02:35:44;13.37;;;5.63;;
9972;SDS011;5027;53.560;10.062;2023-03-31T02:38:11;14.10;;;5.97;;
9972;SDS011;5027;53.560;10.062;2023-03-31T02:40:38;17.43;;;5.80;;
9972;SDS011;5027;53.560;10.062;2023-03-31T02:43:05;12.13;;;4.83;;
9972;SDS011;5027;53.560;10.062;2023-03-31T02:45:45;12.13;;;5.27;;
9972;SDS011;5027;53.560;10.062;2023-03-31T02:48:22;15.67;;;4.97;;
9972;SDS011;5027;53.560;10.062;2023-03-31T02:56:43;16.57;;;5.90;;
9972;SDS011;5027;53.560;10.062;2023-03-31T02:59:31;14.70;;;5.70;;
9972;SDS011;5027;53.560;10.062;2023-03-31T03:04:58;15.57;;;5.13;;
9972;SDS011;5027;53.560;10.062;2023-03-31T03:13:40;15.53;;;6.00;;
9972;SDS011;5027;53.560;10.062;2023-03-31T03:16:58;13.57;;;5.40;;
9972;SDS011;5027;53.560;10.062;2023-03-31T03:19:08;12.80;;;5.87;;
9972;SDS011;5027;53.560;10.062;2023-03-31T03:21:43;13.27;;;5.33;;
9972;SDS011;5027;53.560;10.062;2023-03-31T03:24:11;13.73;;;5.47;;
9972;SDS011;5027;53.560;10.062;2023-03-31T03:26:37;14.83;;;5.73;;
9972;SDS011;5027;53.560;10.062;2023-03-31T03:29:05;13.67;;;5.80;;
9972;SDS011;5027;53.560;10.062;2023-03-31T03:31:31;18.63;;;5.77;;
9972;SDS011;5027;53.560;10.062;2023-03-31T03:33:58;14.17;;;5.93;;
9972;SDS011;5027;53.560;10.062;2023-03-31T03:36:25;15.33;;;5.70;;
9972;SDS011;5027;53.560;10.062;2023-03-31T03:38:52;15.73;;;6.20;;
9972;SDS011;5027;53.560;10.062;2023-03-31T03:41:19;15.83;;;5.60;;
9972;SDS011;5027;53.560;10.062;2023-03-31T03:43:45;11.60;;;4.60;;
9972;SDS011;5027;53.560;10.062;2023-03-31T03:46:12;11.57;;;5.40;;
9972;SDS011;5027;53.560;10.062;2023-03-31T03:48:39;10.60;;;4.70;;
9972;SDS011;5027;53.560;10.062;2023-03-31T03:51:06;12.50;;;4.87;;
9972;SDS011;5027;53.560;10.062;2023-03-31T03:53:32;13.10;;;4.90;;
9972;SDS011;5027;53.560;10.062;2023-03-31T03:55:59;11.53;;;5.10;;
9972;SDS011;5027;53.560;10.062;2023-03-31T03:58:26;12.07;;;4.83;;
9972;SDS011;5027;53.560;10.062;2023-03-31T04:00:53;14.17;;;5.17;;
9972;SDS011;5027;53.560;10.062;2023-03-31T04:03:19;13.93;;;5.20;;
9972;SDS011;5027;53.560;10.062;2023-03-31T04:05:46;11.87;;;5.00;;
9972;SDS011;5027;53.560;10.062;2023-03-31T04:08:15;14.00;;;4.90;;
9972;SDS011;5027;53.560;10.062;2023-03-31T04:10:46;13.37;;;5.53;;
9972;SDS011;5027;53.560;10.062;2023-03-31T04:13:14;14.70;;;5.70;;
9972;SDS011;5027;53.560;10.062;2023-03-31T04:15:42;9.50;;;5.17;;
9972;SDS011;5027;53.560;10.062;2023-03-31T04:18:09;12.73;;;5.30;;
9972;SDS011;5027;53.560;10.062;2023-03-31T04:20:44;13.00;;;6.10;;
9972;SDS011;5027;53.560;10.062;2023-03-31T04:23:11;14.47;;;5.93;;
9972;SDS011;5027;53.560;10.062;2023-03-31T04:25:40;12.37;;;6.10;;
9972;SDS011;5027;53.560;10.062;2023-03-31T04:28:11;13.37;;;5.77;;
9972;SDS011;5027;53.560;10.062;2023-03-31T04:30:39;13.67;;;5.87;;
9972;SDS011;5027;53.560;10.062;2023-03-31T04:33:06;11.43;;;5.67;;
9972;SDS011;5027;53.560;10.062;2023-03-31T04:35:33;14.47;;;6.37;;
9972;SDS011;5027;53.560;10.062;2023-03-31T04:38:16;14.73;;;6.87;;
9972;SDS011;5027;53.560;10.062;2023-03-31T04:40:44;14.20;;;7.07;;
9972;SDS011;5027;53.560;10.062;2023-03-31T04:43:12;12.90;;;6.60;;
9972;SDS011;5027;53.560;10.062;2023-03-31T04:45:40;13.20;;;6.97;;
9972;SDS011;5027;53.560;10.062;2023-03-31T04:48:07;14.37;;;7.10;;
9972;SDS011;5027;53.560;10.062;2023-03-31T04:50:34;15.80;;;7.40;;
9972;SDS011;5027;53.560;10.062;2023-03-31T04:53:02;13.90;;;7.00;;
9972;SDS011;5027;53.560;10.062;2023-03-31T04:55:30;13.27;;;6.77;;
9972;SDS011;5027;53.560;10.062;2023-03-31T04:57:57;12.50;;;6.90;;
9972;SDS011;5027;53.560;10.062;2023-03-31T05:00:24;12.97;;;7.23;;
9972;SDS011;5027;53.560;10.062;2023-03-31T05:02:51;14.20;;;7.47;;
9972;SDS011;5027;53.560;10.062;2023-03-31T05:05:18;16.10;;;8.00;;
9972;SDS011;5027;53.560;10.062;2023-03-31T05:07:45;17.17;;;7.80;;
9972;SDS011;5027;53.560;10.062;2023-03-31T05:10:11;21.47;;;8.30;;
9972;SDS011;5027;53.560;10.062;2023-03-31T05:12:38;12.67;;;8.33;;
9972;SDS011;5027;53.560;10.062;2023-03-31T05:15:05;14.07;;;8.73;;
9972;SDS011;5027;53.560;10.062;2023-03-31T05:17:34;15.07;;;8.43;;
9972;SDS011;5027;53.560;10.062;2023-03-31T05:20:01;16.60;;;8.03;;
9972;SDS011;5027;53.560;10.062;2023-03-31T05:22:32;14.13;;;7.70;;
9972;SDS011;5027;53.560;10.062;2023-03-31T05:25:00;17.20;;;8.60;;
9972;SDS011;5027;53.560;10.062;2023-03-31T05:27:27;17.30;;;8.17;;
9972;SDS011;5027;53.560;10.062;2023-03-31T05:29:54;14.10;;;7.27;;
9972;SDS011;5027;53.560;10.062;2023-03-31T05:32:21;15.83;;;7.40;;
9972;SDS011;5027;53.560;10.062;2023-03-31T05:34:47;16.20;;;7.80;;
9972;SDS011;5027;53.560;10.062;2023-03-31T05:37:18;14.17;;;7.13;;
9972;SDS011;5027;53.560;10.062;2023-03-31T05:39:45;14.73;;;7.30;;
9972;SDS011;5027;53.560;10.062;2023-03-31T05:42:12;14.40;;;7.47;;
9972;SDS011;5027;53.560;10.062;2023-03-31T05:44:38;14.03;;;7.10;;
9972;SDS011;5027;53.560;10.062;2023-03-31T05:47:05;12.87;;;7.20;;
9972;SDS011;5027;53.560;10.062;2023-03-31T05:49:32;14.13;;;6.93;;
9972;SDS011;5027;53.560;10.062;2023-03-31T05:51:58;16.50;;;6.80;;
9972;SDS011;5027;53.560;10.062;2023-03-31T05:54:26;16.77;;;7.07;;
9972;SDS011;5027;53.560;10.062;2023-03-31T05:56:52;11.93;;;6.40;;
9972;SDS011;5027;53.560;10.062;2023-03-31T05:59:19;16.73;;;7.27;;
9972;SDS011;5027;53.560;10.062;2023-03-31T06:01:46;12.43;;;6.77;;
9972;SDS011;5027;53.560;10.062;2023-03-31T06:04:13;13.80;;;6.43;;
9972;SDS011;5027;53.560;10.062;2023-03-31T06:06:39;14.53;;;6.60;;
9972;SDS011;5027;53.560;10.062;2023-03-31T06:09:09;14.07;;;6.63;;
9972;SDS011;5027;53.560;10.062;2023-03-31T06:11:37;14.00;;;7.17;;
9972;SDS011;5027;53.560;10.062;2023-03-31T06:14:04;16.20;;;7.07;;
9972;SDS011;5027;53.560;10.062;2023-03-31T06:16:30;22.80;;;7.60;;
9972;SDS011;5027;53.560;10.062;2023-03-31T06:18:57;14.07;;;6.83;;
9972;SDS011;5027;53.560;10.062;2023-03-31T06:21:24;16.33;;;7.03;;
9972;SDS011;5027;53.560;10.062;2023-03-31T06:23:51;17.70;;;7.20;;
9972;SDS011;5027;53.560;10.062;2023-03-31T06:26:21;18.73;;;7.80;;
9972;SDS011;5027;53.560;10.062;2023-03-31T06:28:51;18.23;;;6.90;;
9972;SDS011;5027;53.560;10.062;2023-03-31T06:31:18;12.80;;;6.53;;
9972;SDS011;5027;53.560;10.062;2023-03-31T06:33:46;16.27;;;6.50;;
9972;SDS011;5027;53.560;10.062;2023-03-31T06:36:15;14.67;;;6.50;;
9972;SDS011;5027;53.560;10.062;2023-03-31T06:38:43;13.60;;;6.17;;
9972;SDS011;5027;53.560;10.062;2023-03-31T06:41:10;19.53;;;6.67;;
9972;SDS011;5027;53.560;10.062;2023-03-31T06:43:39;16.60;;;7.00;;
9972;SDS011;5027;53.560;10.062;2023-03-31T06:46:06;15.13;;;6.00;;
9972;SDS011;5027;53.560;10.062;2023-03-31T06:48:33;17.40;;;6.73;;
9972;SDS011;5027;53.560;10.062;2023-03-31T06:51:01;14.00;;;6.17;;
9972;SDS011;5027;53.560;10.062;2023-03-31T06:53:30;14.53;;;6.40;;
9972;SDS011;5027;53.560;10.062;2023-03-31T06:55:57;14.30;;;7.23;;
9972;SDS011;5027;53.560;10.062;2023-03-31T06:58:24;14.33;;;6.63;;
9972;SDS011;5027;53.560;10.062;2023-03-31T07:00:53;16.93;;;7.03;;
9972;SDS011;5027;53.560;10.062;2023-03-31T07:03:20;15.47;;;6.50;;
9972;SDS011;5027;53.560;10.062;2023-03-31T07:05:48;15.00;;;6.97;;
9972;SDS011;5027;53.560;10.062;2023-03-31T07:08:16;14.70;;;7.57;;
9972;SDS011;5027;53.560;10.062;2023-03-31T07:10:44;15.90;;;7.97;;
9972;SDS011;5027;53.560;10.062;2023-03-31T07:13:14;14.83;;;6.90;;
9972;SDS011;5027;53.560;10.062;2023-03-31T07:15:43;14.00;;;6.47;;
9972;SDS011;5027;53.560;10.062;2023-03-31T07:18:12;9.93;;;6.50;;
9972;SDS011;5027;53.560;10.062;2023-03-31T07:20:41;14.73;;;6.80;;
9972;SDS011;5027;53.560;10.062;2023-03-31T07:23:08;14.13;;;7.10;;
9972;SDS011;5027;53.560;10.062;2023-03-31T07:25:35;15.13;;;6.23;;
9972;SDS011;5027;53.560;10.062;2023-03-31T07:28:02;13.53;;;6.37;;
9972;SDS011;5027;53.560;10.062;2023-03-31T07:30:30;14.10;;;6.67;;
9972;SDS011;5027;53.560;10.062;2023-03-31T07:32:57;11.33;;;5.77;;
9972;SDS011;5027;53.560;10.062;2023-03-31T07:35:24;13.43;;;6.27;;
9972;SDS011;5027;53.560;10.062;2023-03-31T07:37:51;14.63;;;6.50;;
9972;SDS011;5027;53.560;10.062;2023-03-31T07:40:25;17.73;;;6.93;;
9972;SDS011;5027;53.560;10.062;2023-03-31T07:42:53;13.73;;;5.40;;
9972;SDS011;5027;53.560;10.062;2023-03-31T07:45:20;10.50;;;5.90;;
9972;SDS011;5027;53.560;10.062;2023-03-31T07:47:49;11.00;;;5.87;;
9972;SDS011;5027;53.560;10.062;2023-03-31T07:50:16;11.27;;;6.07;;
9972;SDS011;5027;53.560;10.062;2023-03-31T07:52:44;10.83;;;5.73;;
9972;SDS011;5027;53.560;10.062;2023-03-31T07:55:12;16.33;;;6.10;;
9972;SDS011;5027;53.560;10.062;2023-03-31T07:57:39;14.83;;;6.20;;
9972;SDS011;5027;53.560;10.062;2023-03-31T08:00:07;13.17;;;5.53;;
9972;SDS011;5027;53.560;10.062;2023-03-31T08:02:37;11.73;;;5.80;;
9972;SDS011;5027;53.560;10.062;2023-03-31T08:05:06;13.37;;;6.37;;
9972;SDS011;5027;53.560;10.062;2023-03-31T08:07:33;12.20;;;5.43;;
9972;SDS011;5027;53.560;10.062;2023-03-31T08:10:02;12.80;;;5.60;;
9972;SDS011;5027;53.560;10.062;2023-03-31T08:12:30;11.67;;;5.70;;
9972;SDS011;5027;53.560;10.062;2023-03-31T08:14:57;11.70;;;5.60;;
9972;SDS011;5027;53.560;10.062;2023-03-31T08:17:24;15.57;;;5.83;;
9972;SDS011;5027;53.560;10.062;2023-03-31T08:19:51;9.77;;;5.40;;
9972;SDS011;5027;53.560;10.062;2023-03-31T08:22:18;10.20;;;4.80;;
9972;SDS011;5027;53.560;10.062;2023-03-31T08:24:45;13.20;;;5.47;;
9972;SDS011;5027;53.560;10.062;2023-03-31T08:27:12;9.67;;;4.40;;
9972;SDS011;5027;53.560;10.062;2023-03-31T08:29:38;10.97;;;4.93;;
9972;SDS011;5027;53.560;10.062;2023-03-31T08:32:05;11.30;;;5.10;;
9972;SDS011;5027;53.560;10.062;2023-03-31T08:34:32;11.93;;;5.20;;
9972;SDS011;5027;53.560;10.062;2023-03-31T08:36:59;10.70;;;5.57;;
9972;SDS011;5027;53.560;10.062;2023-03-31T08:39:26;9.90;;;4.83;;
9972;SDS011;5027;53.560;10.062;2023-03-31T08:41:56;9.17;;;4.90;;
9972;SDS011;5027;53.560;10.062;2023-03-31T08:44:41;10.03;;;4.10;;
9972;SDS011;5027;53.560;10.062;2023-03-31T08:47:16;8.30;;;4.10;;
9972;SDS011;5027;53.560;10.062;2023-03-31T08:50:29;6.97;;;3.90;;
9972;SDS011;5027;53.560;10.062;2023-03-31T08:52:41;11.70;;;8.07;;
9972;SDS011;5027;53.560;10.062;2023-03-31T08:55:16;6.97;;;3.83;;
9972;SDS011;5027;53.560;10.062;2023-03-31T09:00:43;7.37;;;3.53;;
9972;SDS011;5027;53.560;10.062;2023-03-31T09:03:34;6.77;;;3.13;;
9972;SDS011;5027;53.560;10.062;2023-03-31T09:06:15;11.57;;;3.60;;
9972;SDS011;5027;53.560;10.062;2023-03-31T09:08:55;7.77;;;3.13;;
9972;SDS011;5027;53.560;10.062;2023-03-31T09:11:37;10.10;;;3.77;;
9972;SDS011;5027;53.560;10.062;2023-03-31T09:14:15;8.10;;;3.63;;
9972;SDS011;5027;53.560;10.062;2023-03-31T09:16:52;7.80;;;3.40;;
9972;SDS011;5027;53.560;10.062;2023-03-31T09:19:47;7.37;;;3.60;;
9972;SDS011;5027;53.560;10.062;2023-03-31T09:22:21;8.97;;;3.53;;
9972;SDS011;5027;53.560;10.062;2023-03-31T09:24:55;9.10;;;3.30;;
9972;SDS011;5027;53.560;10.062;2023-03-31T09:27:26;10.43;;;3.63;;
9972;SDS011;5027;53.560;10.062;2023-03-31T09:33:09;7.00;;;2.83;;
9972;SDS011;5027;53.560;10.062;2023-03-31T09:35:42;7.00;;;3.40;;
9972;SDS011;5027;53.560;10.062;2023-03-31T09:38:11;8.83;;;3.37;;
9972;SDS011;5027;53.560;10.062;2023-03-31T09:40:40;7.90;;;3.60;;
9972;SDS011;5027;53.560;10.062;2023-03-31T09:43:09;9.30;;;3.40;;
9972;SDS011;5027;53.560;10.062;2023-03-31T09:45:46;10.00;;;3.93;;
9972;SDS011;5027;53.560;10.062;2023-03-31T09:48:34;4.47;;;2.77;;
9972;SDS011;5027;53.560;10.062;2023-03-31T09:51:02;6.90;;;3.10;;
9972;SDS011;5027;53.560;10.062;2023-03-31T09:53:54;8.97;;;3.70;;
9972;SDS011;5027;53.560;10.062;2023-03-31T09:59:21;10.00;;;3.90;;
9972;SDS011;5027;53.560;10.062;2023-03-31T10:01:57;9.30;;;4.20;;
9972;SDS011;5027;53.560;10.062;2023-03-31T10:04:29;10.77;;;3.50;;
9972;SDS011;5027;53.560;10.062;2023-03-31T10:06:58;8.17;;;3.73;;
9972;SDS011;5027;53.560;10.062;2023-03-31T10:09:29;8.43;;;3.27;;
9972;SDS011;5027;53.560;10.062;2023-03-31T10:11:58;7.80;;;3.80;;
9972;SDS011;5027;53.560;10.062;2023-03-31T10:14:39;6.50;;;3.63;;
9972;SDS011;5027;53.560;10.062;2023-03-31T10:17:13;7.33;;;4.40;;
9972;SDS011;5027;53.560;10.062;2023-03-31T10:24:47;6.37;;;3.20;;
9972;SDS011;5027;53.560;10.062;2023-03-31T10:27:24;6.77;;;3.40;;
9972;SDS011;5027;53.560;10.062;2023-03-31T10:29:53;8.60;;;3.67;;
9972;SDS011;5027;53.560;10.062;2023-03-31T10:32:23;6.53;;;3.47;;
9972;SDS011;5027;53.560;10.062;2023-03-31T10:34:55;7.37;;;3.20;;
9972;SDS011;5027;53.560;10.062;2023-03-31T10:37:24;6.43;;;2.60;;
9972;SDS011;5027;53.560;10.062;2023-03-31T10:40:01;8.20;;;3.60;;
9972;SDS011;5027;53.560;10.062;2023-03-31T10:42:30;6.60;;;3.40;;
9972;SDS011;5027;53.560;10.062;2023-03-31T10:45:22;6.73;;;3.50;;
9972;SDS011;5027;53.560;10.062;2023-03-31T10:48:03;6.50;;;3.63;;
9972;SDS011;5027;53.560;10.062;2023-03-31T10:50:41;9.97;;;3.70;;
9972;SDS011;5027;53.560;10.062;2023-03-31T10:53:12;4.97;;;3.17;;
9972;SDS011;5027;53.560;10.062;2023-03-31T10:55:46;6.80;;;3.00;;
9972;SDS011;5027;53.560;10.062;2023-03-31T10:58:30;7.47;;;3.30;;
9972;SDS011;5027;53.560;10.062;2023-03-31T11:07:03;7.50;;;3.57;;
9972;SDS011;5027;53.560;10.062;2023-03-31T11:10:10;5.20;;;3.00;;
9972;SDS011;5027;53.560;10.062;2023-03-31T11:16:23;6.27;;;3.17;;
9972;SDS011;5027;53.560;10.062;2023-03-31T11:22:00;5.97;;;3.37;;
9972;SDS011;5027;53.560;10.062;2023-03-31T11:25:01;6.83;;;2.80;;
9972;SDS011;5027;53.560;10.062;2023-03-31T11:27:48;7.70;;;3.10;;
9972;SDS011;5027;53.560;10.062;2023-03-31T11:30:27;6.23;;;2.70;;
9972;SDS011;5027;53.560;10.062;2023-03-31T11:36:02;6.97;;;2.90;;
9972;SDS011;5027;53.560;10.062;2023-03-31T11:38:46;5.77;;;2.80;;
9972;SDS011;5027;53.560;10.062;2023-03-31T11:41:29;6.67;;;2.83;;
9972;SDS011;5027;53.560;10.062;2023-03-31T11:44:17;6.23;;;2.80;;
9972;SDS011;5027;53.560;10.062;2023-03-31T11:49:32;5.23;;;2.53;;
9972;SDS011;5027;53.560;10.062;2023-03-31T11:52:17;6.10;;;2.97;;
9972;SDS011;5027;53.560;10.062;2023-03-31T11:54:54;6.17;;;3.33;;
9972;SDS011;5027;53.560;10.062;2023-03-31T11:57:31;5.23;;;2.73;;
9972;SDS011;5027;53.560;10.062;2023-03-31T12:00:12;4.97;;;2.40;;
9972;SDS011;5027;53.560;10.062;2023-03-31T12:02:58;4.67;;;2.50;;
9972;SDS011;5027;53.560;10.062;2023-03-31T12:05:33;5.40;;;2.93;;
9972;SDS011;5027;53.560;10.062;2023-03-31T12:08:07;11.80;;;8.33;;
9972;SDS011;5027;53.560;10.062;2023-03-31T12:10:59;8.83;;;5.67;;
9972;SDS011;5027;53.560;10.062;2023-03-31T12:14:16;6.10;;;2.80;;
9972;SDS011;5027;53.560;10.062;2023-03-31T12:16:47;6.67;;;3.67;;
9972;SDS011;5027;53.560;10.062;2023-03-31T12:24:53;6.37;;;3.00;;
9972;SDS011;5027;53.560;10.062;2023-03-31T12:27:26;4.10;;;3.07;;
9972;SDS011;5027;53.560;10.062;2023-03-31T12:30:12;8.40;;;4.90;;
9972;SDS011;5027;53.560;10.062;2023-03-31T12:32:46;4.90;;;2.60;;
9972;SDS011;5027;53.560;10.062;2023-03-31T12:35:27;7.07;;;3.47;;
9972;SDS011;5027;53.560;10.062;2023-03-31T12:40:58;7.13;;;4.00;;
9972;SDS011;5027;53.560;10.062;2023-03-31T12:43:49;7.90;;;3.63;;
9972;SDS011;5027;53.560;10.062;2023-03-31T12:49:47;6.33;;;2.83;;
9972;SDS011;5027;53.560;10.062;2023-03-31T12:55:44;5.97;;;3.40;;
9972;SDS011;5027;53.560;10.062;2023-03-31T13:01:17;5.73;;;3.00;;
9972;SDS011;5027;53.560;10.062;2023-03-31T13:03:49;4.40;;;2.70;;
9972;SDS011;5027;53.560;10.062;2023-03-31T13:08:55;7.60;;;2.87;;
9972;SDS011;5027;53.560;10.062;2023-03-31T13:14:06;5.43;;;3.00;;
9972;SDS011;5027;53.560;10.062;2023-03-31T13:16:41;5.13;;;2.90;;
9972;SDS011;5027;53.560;10.062;2023-03-31T13:19:22;6.67;;;3.23;;
9972;SDS011;5027;53.560;10.062;2023-03-31T13:21:57;6.93;;;3.00;;
9972;SDS011;5027;53.560;10.062;2023-03-31T13:24:26;6.70;;;3.23;;
9972;SDS011;5027;53.560;10.062;2023-03-31T13:26:55;6.23;;;3.23;;
9972;SDS011;5027;53.560;10.062;2023-03-31T13:29:25;5.23;;;2.80;;
9972;SDS011;5027;53.560;10.062;2023-03-31T13:32:24;8.20;;;3.40;;
9972;SDS011;5027;53.560;10.062;2023-03-31T13:34:57;6.63;;;2.87;;
9972;SDS011;5027;53.560;10.062;2023-03-31T13:45:57;5.40;;;2.87;;
9972;SDS011;5027;53.560;10.062;2023-03-31T13:54:35;6.57;;;2.90;;
9972;SDS011;5027;53.560;10.062;2023-03-31T14:04:07;4.07;;;2.43;;
9972;SDS011;5027;53.560;10.062;2023-03-31T14:07:05;7.33;;;2.80;;
9972;SDS011;5027;53.560;10.062;2023-03-31T14:09:35;5.47;;;2.47;;
9972;SDS011;5027;53.560;10.062;2023-03-31T14:12:18;3.33;;;2.43;;
9972;SDS011;5027;53.560;10.062;2023-03-31T14:14:47;5.37;;;2.53;;
9972;SDS011;5027;53.560;10.062;2023-03-31T14:17:18;5.53;;;3.00;;
9972;SDS011;5027;53.560;10.062;2023-03-31T14:19:57;5.47;;;2.57;;
9972;SDS011;5027;53.560;10.062;2023-03-31T14:25:45;4.17;;;2.80;;
9972;SDS011;5027;53.560;10.062;2023-03-31T14:28:40;2.80;;;2.40;;
9972;SDS011;5027;53.560;10.062;2023-03-31T14:31:35;2.87;;;2.17;;
9972;SDS011;5027;53.560;10.062;2023-03-31T14:37:19;5.50;;;2.80;;
9972;SDS011;5027;53.560;10.062;2023-03-31T14:39:51;4.20;;;2.50;;
9972;SDS011;5027;53.560;10.062;2023-03-31T14:42:23;5.17;;;2.80;;
9972;SDS011;5027;53.560;10.062;2023-03-31T14:44:54;4.73;;;2.20;;
9972;SDS011;5027;53.560;10.062;2023-03-31T14:47:23;3.97;;;2.27;;
9972;SDS011;5027;53.560;10.062;2023-03-31T14:50:01;3.43;;;2.13;;
9972;SDS011;5027;53.560;10.062;2023-03-31T14:52:49;3.47;;;2.20;;
9972;SDS011;5027;53.560;10.062;2023-03-31T14:55:19;2.43;;;2.03;;
9972;SDS011;5027;53.560;10.062;2023-03-31T14:57:57;5.13;;;2.30;;
9972;SDS011;5027;53.560;10.062;2023-03-31T15:00:27;4.33;;;2.67;;
9972;SDS011;5027;53.560;10.062;2023-03-31T15:02:58;5.50;;;4.10;;
9972;SDS011;5027;53.560;10.062;2023-03-31T15:07:56;3.70;;;2.37;;
9972;SDS011;5027;53.560;10.062;2023-03-31T15:10:39;3.20;;;2.07;;
9972;SDS011;5027;53.560;10.062;2023-03-31T15:13:10;3.50;;;2.27;;
9972;SDS011;5027;53.560;10.062;2023-03-31T15:15:41;2.50;;;2.20;;
9972;SDS011;5027;53.560;10.062;2023-03-31T15:18:11;2.17;;;1.90;;
9972;SDS011;5027;53.560;10.062;2023-03-31T15:20:40;3.13;;;2.30;;
9972;SDS011;5027;53.560;10.062;2023-03-31T15:23:20;2.10;;;1.80;;
9972;SDS011;5027;53.560;10.062;2023-03-31T15:25:57;4.40;;;3.27;;
9972;SDS011;5027;53.560;10.062;2023-03-31T15:28:27;2.93;;;1.70;;
9972;SDS011;5027;53.560;10.062;2023-03-31T15:31:01;2.93;;;2.00;;
9972;SDS011;5027;53.560;10.062;2023-03-31T15:33:35;2.93;;;1.90;;
9972;SDS011;5027;53.560;10.062;2023-03-31T15:36:07;3.00;;;1.60;;
9972;SDS011;5027;53.560;10.062;2023-03-31T15:38:36;2.70;;;1.70;;
9972;SDS011;5027;53.560;10.062;2023-03-31T15:41:03;3.10;;;1.83;;
9972;SDS011;5027;53.560;10.062;2023-03-31T15:46:08;2.10;;;1.80;;
9972;SDS011;5027;53.560;10.062;2023-03-31T15:48:38;4.20;;;1.93;;
9972;SDS011;5027;53.560;10.062;2023-03-31T15:51:30;3.23;;;1.90;;
9972;SDS011;5027;53.560;10.062;2023-03-31T15:54:00;2.30;;;1.50;;
9972;SDS011;5027;53.560;10.062;2023-03-31T15:56:28;2.17;;;1.60;;
9972;SDS011;5027;53.560;10.062;2023-03-31T15:59:01;4.00;;;1.70;;
9972;SDS011;5027;53.560;10.062;2023-03-31T16:01:30;3.80;;;2.33;;
9972;SDS011;5027;53.560;10.062;2023-03-31T16:04:01;3.23;;;2.50;;
9972;SDS011;5027;53.560;10.062;2023-03-31T16:06:35;2.93;;;2.20;;
9972;SDS011;5027;53.560;10.062;2023-03-31T16:09:07;2.77;;;2.17;;
9972;SDS011;5027;53.560;10.062;2023-03-31T16:11:46;3.40;;;2.00;;
9972;SDS011;5027;53.560;10.062;2023-03-31T16:14:25;2.03;;;1.53;;
9972;SDS011;5027;53.560;10.062;2023-03-31T16:16:59;2.90;;;2.00;;
9972;SDS011;5027;53.560;10.062;2023-03-31T16:19:37;2.57;;;1.93;;
9972;SDS011;5027;53.560;10.062;2023-03-31T16:22:12;3.37;;;1.60;;
9972;SDS011;5027;53.560;10.062;2023-03-31T16:24:43;2.33;;;2.13;;
9972;SDS011;5027;53.560;10.062;2023-03-31T16:27:09;2.17;;;1.90;;
9972;SDS011;5027;53.560;10.062;2023-03-31T16:29:37;3.23;;;1.70;;
9972;SDS011;5027;53.560;10.062;2023-03-31T16:32:11;3.90;;;2.07;;
9972;SDS011;5027;53.560;10.062;2023-03-31T16:37:23;3.37;;;2.60;;
9972;SDS011;5027;53.560;10.062;2023-03-31T16:39:51;2.77;;;2.17;;
9972;SDS011;5027;53.560;10.062;2023-03-31T16:42:18;22.17;;;20.17;;
9972;SDS011;5027;53.560;10.062;2023-03-31T16:44:45;2.47;;;1.90;;
9972;SDS011;5027;53.560;10.062;2023-03-31T16:47:25;4.73;;;2.10;;
9972;SDS011;5027;53.560;10.062;2023-03-31T16:50:02;4.33;;;2.67;;
9972;SDS011;5027;53.560;10.062;2023-03-31T16:52:32;4.00;;;2.93;;
9972;SDS011;5027;53.560;10.062;2023-03-31T16:54:59;7.07;;;3.27;;
9972;SDS011;5027;53.560;10.062;2023-03-31T16:57:26;3.97;;;2.73;;
9972;SDS011;5027;53.560;10.062;2023-03-31T16:59:53;5.60;;;2.77;;
9972;SDS011;5027;53.560;10.062;2023-03-31T17:02:23;2.50;;;2.30;;
9972;SDS011;5027;53.560;10.062;2023-03-31T17:04:50;2.60;;;2.20;;
9972;SDS011;5027;53.560;10.062;2023-03-31T17:07:21;4.30;;;2.60;;
9972;SDS011;5027;53.560;10.062;2023-03-31T17:09:48;7.17;;;5.27;;
9972;SDS011;5027;53.560;10.062;2023-03-31T17:12:15;4.53;;;3.03;;
9972;SDS011;5027;53.560;10.062;2023-03-31T17:14:41;6.97;;;3.30;;
9972;SDS011;5027;53.560;10.062;2023-03-31T17:17:08;2.87;;;2.27;;
9972;SDS011;5027;53.560;10.062;2023-03-31T17:19:34;4.03;;;3.17;;
9972;SDS011;5027;53.560;10.062;2023-03-31T17:22:01;4.00;;;3.00;;
9972;SDS011;5027;53.560;10.062;2023-03-31T17:24:28;5.77;;;3.03;;
9972;SDS011;5027;53.560;10.062;2023-03-31T17:26:55;5.60;;;3.23;;
9972;SDS011;5027;53.560;10.062;2023-03-31T17:29:22;5.30;;;2.70;;
9972;SDS011;5027;53.560;10.062;2023-03-31T17:31:49;4.63;;;2.50;;